Time;durP1;ratioP1;P1;durP2;ratioP2;P2;SDS_P1;SDS_P2;PMS_P1;PMS_P2;Temp;Humidity;BMP_temperature;BMP_pressure;BME280_temperature;BME280_humidity;BME280_pressure;Samples;Min_cycle;Max_cycle;Signal;HPM_P1;HPM_P2
2022/09/25 00:01:14;;;;;;;18.70;8.48;;;11.20;99.90;;;;;;6219027;23;20016;-85
2022/09/25 00:03:42;;;;;;;32.30;13.95;;;11.20;99.90;;;;;;6220777;23;20024;-85
2022/09/25 00:06:20;;;;;;;8.50;7.70;;;11.00;99.90;;;;;;6249672;22;20320;-84
2022/09/25 00:08:49;;;;;;;9.25;7.45;;;11.00;99.90;;;;;;6256321;23;20024;-84
2022/09/25 00:11:20;;;;;;;10.55;9.50;;;11.00;99.90;;;;;;6246994;23;20031;-85
2022/09/25 00:13:47;;;;;;;13.38;8.80;;;11.00;99.90;;;;;;6255381;22;20024;-84
2022/09/25 00:16:18;;;;;;;8.32;7.63;;;11.00;99.90;;;;;;6257810;23;20023;-84
2022/09/25 00:21:33;;;;;;;8.15;7.47;;;10.90;99.90;;;;;;6255676;22;20008;-84
2022/09/25 00:24:06;;;;;;;10.18;9.18;;;10.90;99.90;;;;;;6256035;23;20432;-84
2022/09/25 00:26:36;;;;;;;8.68;7.88;;;10.80;99.90;;;;;;6247228;22;20016;-85
2022/09/25 00:29:05;;;;;;;12.90;9.47;;;10.80;99.90;;;;;;6271274;22;20016;-85
2022/09/25 00:31:32;;;;;;;8.75;8.05;;;10.80;99.90;;;;;;6220085;23;20452;-84
2022/09/25 00:34:02;;;;;;;17.13;10.70;;;10.80;99.90;;;;;;6227735;23;20020;-84
2022/09/25 00:36:31;;;;;;;17.10;9.10;;;10.80;99.90;;;;;;6255842;23;20012;-85
2022/09/25 00:38:59;;;;;;;11.52;9.80;;;10.70;99.90;;;;;;6219671;23;20339;-84
2022/09/25 00:41:30;;;;;;;9.13;8.30;;;10.50;99.90;;;;;;6229268;22;20015;-84
2022/09/25 00:43:58;;;;;;;;;;;10.50;99.90;;;;;;6196333;23;20012;-84
2022/09/25 00:46:39;;;;;;;8.73;7.72;;;10.50;99.90;;;;;;6195208;23;19916;-84
2022/09/25 00:49:22;;;;;;;15.27;9.63;;;10.40;99.90;;;;;;6256313;23;20012;-84
2022/09/25 00:52:01;;;;;;;9.50;8.63;;;10.30;99.90;;;;;;6243753;23;20024;-84
2022/09/25 00:54:43;;;;;;;8.90;8.13;;;10.30;99.90;;;;;;6250321;22;20021;-83
2022/09/25 00:57:16;;;;;;;9.18;8.35;;;10.10;99.90;;;;;;6255159;23;20008;-84
2022/09/25 00:59:47;;;;;;;10.73;9.82;;;10.10;99.90;;;;;;6244735;23;20020;-84
2022/09/25 01:02:23;;;;;;;8.45;7.75;;;10.10;99.90;;;;;;6194170;23;20031;-84
2022/09/25 01:04:51;;;;;;;9.77;8.98;;;10.00;99.90;;;;;;6255296;23;20020;-84
2022/09/25 01:07:19;;;;;;;9.45;8.55;;;10.00;99.90;;;;;;6246868;23;20024;-84
2022/09/25 01:09:46;;;;;;;10.23;9.23;;;10.10;99.90;;;;;;6253465;23;20016;-83
2022/09/25 01:12:14;;;;;;;8.63;7.78;;;10.00;99.90;;;;;;6219501;23;20644;-84
2022/09/25 01:14:42;;;;;;;7.72;7.13;;;10.00;99.90;;;;;;6249617;23;20024;-84
2022/09/25 01:17:20;;;;;;;9.27;8.48;;;9.90;99.90;;;;;;6220063;23;20016;-83
2022/09/25 01:20:12;;;;;;;11.43;7.93;;;9.90;99.90;;;;;;6219306;23;20024;-84
2022/09/25 01:22:49;;;;;;;;;;;9.80;99.90;;;;;;6251427;22;20463;-84
2022/09/25 01:25:42;;;;;;;22.67;11.75;;;9.70;99.90;;;;;;6257212;23;19916;-84
2022/09/25 01:28:36;;;;;;;10.65;8.50;;;9.60;99.90;;;;;;6253840;23;20345;-84
2022/09/25 01:31:10;;;;;;;11.32;10.25;;;9.60;99.90;;;;;;6248857;22;20017;-84
2022/09/25 01:33:54;;;;;;;13.20;9.80;;;9.60;99.90;;;;;;6255445;22;20023;-84
2022/09/25 01:36:32;;;;;;;69.22;18.80;;;9.60;99.90;;;;;;6256697;23;20019;-84
2022/09/25 01:39:16;;;;;;;45.30;18.40;;;9.60;99.90;;;;;;6249434;22;20027;-83
2022/09/25 01:41:55;;;;;;;18.67;11.18;;;9.50;99.90;;;;;;6254599;22;20023;-83
2022/09/25 01:44:30;;;;;;;16.52;9.27;;;9.50;99.90;;;;;;6271080;22;20016;-83
2022/09/25 01:47:10;;;;;;;10.35;8.77;;;9.50;99.90;;;;;;6248067;23;20020;-84
2022/09/25 01:49:43;;;;;;;8.98;8.15;;;9.40;99.90;;;;;;6270164;22;20024;-84
2022/09/25 01:52:16;;;;;;;8.77;7.55;;;9.40;99.90;;;;;;6254912;23;20016;-83
2022/09/25 01:54:53;;;;;;;9.60;8.15;;;9.30;99.90;;;;;;6250806;22;20359;-83
2022/09/25 01:57:30;;;;;;;14.82;7.03;;;9.30;99.90;;;;;;6268769;22;20028;-83
2022/09/25 02:00:11;;;;;;;7.03;6.32;;;9.10;99.90;;;;;;6228592;23;20031;-83
2022/09/25 02:03:06;;;;;;;18.30;8.70;;;8.90;99.90;;;;;;6248725;23;20047;-83
2022/09/25 02:05:47;;;;;;;11.15;7.70;;;8.80;99.90;;;;;;6194561;22;20035;-83
2022/09/25 02:08:27;;;;;;;7.72;7.05;;;8.80;99.90;;;;;;6219705;23;20027;-83
2022/09/25 02:11:02;;;;;;;6.55;5.95;;;8.80;99.90;;;;;;6218875;23;20017;-84
2022/09/25 02:13:57;;;;;;;105.65;16.85;;;8.90;99.90;;;;;;6219166;22;20027;-83
2022/09/25 02:16:32;;;;;;;10.15;7.38;;;8.80;99.90;;;;;;6270539;22;20332;-84
2022/09/25 02:22:04;;;;;;;6.88;6.30;;;8.60;99.90;;;;;;6254274;22;20345;-83
2022/09/25 02:25:02;;;;;;;6.07;5.57;;;8.60;99.90;;;;;;6254471;23;20013;-83
2022/09/25 02:27:30;;;;;;;8.20;7.50;;;8.50;99.90;;;;;;6246634;22;20020;-83
2022/09/25 06:37:43;;;;;;;5.72;5.22;;;10.20;99.90;;;;;;6176304;23;20016;-82
2022/09/25 06:40:11;;;;;;;5.90;5.22;;;10.30;99.90;;;;;;6194086;23;20012;-82
2022/09/25 06:42:38;;;;;;;5.75;5.20;;;10.40;99.90;;;;;;6222845;23;20028;-82
2022/09/25 06:45:06;;;;;;;7.95;5.38;;;10.40;99.90;;;;;;6256063;23;20021;-82
2022/09/25 06:47:33;;;;;;;5.20;4.38;;;10.50;99.90;;;;;;6246278;23;20624;-82
2022/09/25 06:50:01;;;;;;;5.38;4.88;;;10.50;99.90;;;;;;6252758;23;20016;-82
2022/09/25 06:52:28;;;;;;;7.90;7.20;;;10.60;99.90;;;;;;6228933;23;20020;-82
2022/09/25 06:54:56;;;;;;;6.15;5.53;;;10.70;99.90;;;;;;6248756;22;20016;-82
2022/09/25 06:57:23;;;;;;;5.22;4.75;;;10.80;99.90;;;;;;6253215;23;20016;-82
2022/09/25 06:59:51;;;;;;;6.38;5.78;;;10.90;99.90;;;;;;6255879;23;20676;-82
2022/09/25 07:05:04;;;;;;;5.85;5.32;;;10.90;99.90;;;;;;6219307;23;20021;-82
2022/09/25 07:07:38;;;;;;;5.57;5.18;;;11.00;99.90;;;;;;6219258;23;20021;-82
2022/09/25 07:10:06;;;;;;;5.93;5.32;;;11.10;99.90;;;;;;6225484;23;20012;-82
2022/09/25 07:12:33;;;;;;;4.45;4.05;;;11.10;99.90;;;;;;6218194;23;20012;-83
2022/09/25 07:15:10;;;;;;;5.15;4.65;;;11.20;99.90;;;;;;6193441;23;20028;-84
2022/09/25 07:17:41;;;;;;;5.38;4.88;;;11.30;99.90;;;;;;6253578;22;20355;-83
2022/09/25 07:20:45;;;;;;;;;;;;;;;;;;;;;
2022/09/25 07:23:57;;;;;;;6.68;6.18;;;11.50;99.90;;;;;;6235362;22;19926;-90
2022/09/25 07:28:06;;;;;;;7.05;4.68;;;11.50;99.90;;;;;;6100810;23;20017;-88
2022/09/25 07:32:10;;;;;;;5.60;5.10;;;11.60;99.90;;;;;;6049603;23;20347;-89
2022/09/25 07:41:03;;;;;;;9.45;6.97;;;11.80;99.90;;;;;;5982695;23;20431;-90
2022/09/25 07:54:58;;;;;;;;;;;;;;;;;;;;;
2022/09/25 07:59:23;;;;;;;6.97;6.18;;;12.00;99.90;;;;;;5963886;23;20474;-90
2022/09/25 08:02:20;;;;;;;5.82;5.15;;;12.30;99.90;;;;;;6080270;23;20349;-90
2022/09/25 08:06:37;;;;;;;5.00;4.20;;;12.20;99.90;;;;;;6027691;23;20473;-90
2022/09/25 08:09:31;;;;;;;6.07;5.55;;;12.40;99.90;;;;;;6068489;23;20027;-90
2022/09/25 08:13:01;;;;;;;6.10;5.50;;;12.60;99.90;;;;;;6013243;23;20020;-89
2022/09/25 08:16:56;;;;;;;5.95;5.35;;;12.60;99.90;;;;;;6039375;23;20030;-90
2022/09/25 08:21:55;;;;;;;7.07;5.70;;;12.80;99.90;;;;;;5925266;24;20036;-92
2022/09/25 08:25:54;;;;;;;4.40;4.00;;;12.80;99.90;;;;;;5880490;24;20025;-92
2022/09/25 08:28:16;;;;;;;6.43;5.65;;;12.80;99.90;;;;;;6009519;23;20019;-92
2022/09/25 08:31:03;;;;;;;6.57;5.38;;;12.80;99.90;;;;;;6030928;23;20027;-93
2022/09/25 08:34:16;;;;;;;7.22;6.53;;;12.70;99.90;;;;;;6241896;23;20047;-93
2022/09/25 08:38:03;;;;;;;6.43;5.93;;;12.70;99.90;;;;;;6213091;22;20523;-90
2022/09/25 08:41:13;;;;;;;;;;;;;;;;;;;;;
2022/09/25 08:51:12;;;;;;;;;;;;;;;;;;;;;
2022/09/25 08:58:29;;;;;;;7.15;6.47;;;12.80;99.90;;;;;;6180762;23;20042;-92
2022/09/25 09:02:52;;;;;;;7.32;5.32;;;12.80;99.90;;;;;;6231336;22;20440;-91
2022/09/25 09:11:12;;;;;;;;;;;;;;;;;;;;;
2022/09/25 09:22:15;;;;;;;;;;;;;;;;;;;;;
2022/09/25 10:15:30;;;;;;;2.83;2.63;;;13.80;99.90;;;;;;6178005;23;20862;-90
2022/09/25 10:21:15;;;;;;;2.47;2.30;;;13.80;99.90;;;;;;6193859;23;20016;-89
2022/09/25 10:38:19;;;;;;;3.73;3.20;;;14.30;99.90;;;;;;6217259;22;20949;-90
2022/09/25 10:41:42;;;;;;;2.97;2.60;;;14.30;99.90;;;;;;6192367;23;20260;-88
2022/09/25 10:53:12;;;;;;;2.78;2.55;;;14.10;99.90;;;;;;5978532;23;20498;-89
2022/09/25 10:55:50;;;;;;;3.10;2.83;;;14.00;99.90;;;;;;5959225;23;20032;-82
2022/09/25 11:02:01;;;;;;;4.75;3.70;;;14.00;99.90;;;;;;6237556;22;20028;-92
2022/09/25 11:04:36;;;;;;;3.00;2.80;;;14.10;99.90;;;;;;6195258;23;20020;-89
2022/09/25 11:18:40;;;;;;;3.45;3.15;;;14.00;99.90;;;;;;6150049;23;20066;-91
2022/09/25 11:36:33;;;;;;;4.35;3.95;;;14.10;99.90;;;;;;6234238;22;20024;-87
2022/09/25 11:42:17;;;;;;;3.67;3.38;;;13.90;99.90;;;;;;6251432;23;20016;-89
2022/09/25 11:44:56;;;;;;;4.63;4.25;;;13.90;99.90;;;;;;6216965;23;20020;-86
2022/09/25 11:48:15;;;;;;;5.55;4.15;;;13.90;99.90;;;;;;6216642;23;20027;-91
2022/09/25 11:56:02;;;;;;;4.82;3.50;;;14.20;99.90;;;;;;6224757;23;20399;-89
2022/09/25 11:58:56;;;;;;;4.50;4.10;;;14.40;99.90;;;;;;6219749;23;20335;-91
2022/09/25 12:01:43;;;;;;;5.13;4.32;;;14.50;99.90;;;;;;6190526;22;20035;-91
2022/09/25 12:04:37;;;;;;;3.65;3.25;;;14.60;99.90;;;;;;6242781;23;20031;-91
2022/09/25 12:07:26;;;;;;;4.85;4.38;;;14.90;99.90;;;;;;6192462;23;20016;-91
2022/09/25 12:10:53;;;;;;;;;;;;;;;;;;;;;
2022/09/25 12:14:24;;;;;;;3.30;2.75;;;15.00;99.90;;;;;;6224031;23;20024;-89
2022/09/25 12:17:11;;;;;;;4.78;3.55;;;15.20;99.90;;;;;;6202603;23;20023;-90
2022/09/25 12:26:16;;;;;;;2.15;2.00;;;15.10;99.90;;;;;;6056353;23;20046;-90
2022/09/25 12:29:34;;;;;;;2.78;2.58;;;15.10;99.90;;;;;;6085652;23;20030;-88
2022/09/25 12:32:47;;;;;;;1.92;1.77;;;15.00;99.90;;;;;;6006252;23;20029;-88
2022/09/25 12:39:48;;;;;;;2.65;2.28;;;15.10;99.90;;;;;;6050123;23;20028;-88
2022/09/25 12:42:31;;;;;;;3.28;2.20;;;15.10;99.90;;;;;;6128383;23;20018;-89
2022/09/25 12:45:18;;;;;;;2.47;2.28;;;15.10;99.90;;;;;;6105942;23;20341;-86
2022/09/25 12:48:05;;;;;;;1.73;1.63;;;15.00;99.90;;;;;;6183101;23;20024;-88
2022/09/25 12:50:48;;;;;;;3.33;3.03;;;15.20;99.90;;;;;;6199934;23;20024;-89
2022/09/25 12:53:19;;;;;;;3.40;3.10;;;15.70;99.90;;;;;;6195247;23;20470;-88
2022/09/25 12:55:57;;;;;;;4.17;3.87;;;15.70;99.90;;;;;;6219729;23;20027;-89
2022/09/25 12:58:58;;;;;;;4.13;2.95;;;15.50;99.90;;;;;;6250595;22;20020;-91
2022/09/25 13:01:35;;;;;;;2.55;2.17;;;15.50;99.90;;;;;;6229608;23;20012;-91
2022/09/25 13:04:18;;;;;;;2.28;2.08;;;15.60;99.90;;;;;;6194410;23;20016;-91
2022/09/25 13:07:51;;;;;;;3.10;2.53;;;15.50;99.90;;;;;;6194291;23;20016;-89
2022/09/25 13:10:32;;;;;;;3.72;3.40;;;15.30;99.90;;;;;;6169328;23;20447;-90
2022/09/25 13:13:07;;;;;;;4.00;3.70;;;15.00;99.90;;;;;;6194215;23;20462;-89
2022/09/25 13:15:41;;;;;;;2.50;2.22;;;14.80;99.90;;;;;;6218642;23;20020;-91
2022/09/25 13:18:24;;;;;;;3.07;2.87;;;14.70;99.90;;;;;;6244043;23;20028;-90
2022/09/25 13:20:54;;;;;;;3.15;2.85;;;14.70;99.90;;;;;;6219527;23;20016;-90
2022/09/25 13:23:26;;;;;;;3.28;2.95;;;15.00;99.90;;;;;;6182861;23;20021;-90
2022/09/25 13:25:59;;;;;;;2.25;2.15;;;15.10;99.90;;;;;;6226349;23;20016;-90
2022/09/25 13:28:33;;;;;;;4.60;2.30;;;15.00;99.90;;;;;;6194006;23;20020;-90
2022/09/25 13:31:14;;;;;;;2.45;2.25;;;15.00;99.90;;;;;;6222832;22;20035;-91
2022/09/25 13:33:58;;;;;;;2.08;1.90;;;15.00;99.90;;;;;;6193690;23;20024;-88
2022/09/25 13:41:33;;;;;;;3.88;3.20;;;15.00;99.90;;;;;;6238026;23;20035;-91
2022/09/25 13:44:42;;;;;;;3.28;3.00;;;14.90;99.90;;;;;;6170652;23;20320;-88
2022/09/25 13:47:28;;;;;;;3.20;2.90;;;14.80;99.90;;;;;;6213533;22;20017;-89
2022/09/25 13:50:20;;;;;;;2.72;2.53;;;14.60;99.90;;;;;;6252777;23;20335;-89
2022/09/25 13:53:16;;;;;;;2.70;2.50;;;14.50;99.90;;;;;;6194287;23;20458;-89
2022/09/25 13:56:03;;;;;;;3.22;2.92;;;14.60;99.90;;;;;;6204451;23;20035;-90
2022/09/25 13:59:09;;;;;;;4.18;3.78;;;14.40;99.90;;;;;;6194020;23;20035;-89
2022/09/25 14:01:45;;;;;;;3.95;3.65;;;14.30;99.90;;;;;;6193788;22;20016;-90
2022/09/25 14:04:16;;;;;;;4.40;3.95;;;14.30;99.90;;;;;;6218476;23;20020;-87
2022/09/25 14:06:54;;;;;;;3.83;3.47;;;14.20;99.90;;;;;;6178572;23;20620;-91
2022/09/25 14:09:32;;;;;;;4.38;3.95;;;14.10;99.90;;;;;;6170433;23;20016;-90
2022/09/25 14:12:16;;;;;;;6.30;5.60;;;14.10;99.90;;;;;;6192277;23;20028;-85
2022/09/25 14:14:54;;;;;;;5.40;4.38;;;14.10;99.90;;;;;;6193791;23;20031;-90
2022/09/25 14:17:31;;;;;;;7.55;6.05;;;14.00;99.90;;;;;;6192845;22;20020;-90
2022/09/25 14:20:16;;;;;;;5.90;5.03;;;13.90;99.90;;;;;;6219212;23;20458;-91
2022/09/25 14:23:19;;;;;;;4.82;4.35;;;13.90;99.90;;;;;;6172688;23;20025;-92
2022/09/25 14:26:06;;;;;;;5.63;5.00;;;13.80;99.90;;;;;;6104493;23;20017;-90
2022/09/25 14:28:46;;;;;;;7.15;5.85;;;13.80;99.90;;;;;;6139185;23;20024;-90
2022/09/25 14:31:31;;;;;;;8.75;5.72;;;13.60;99.90;;;;;;6162839;23;20028;-90
2022/09/25 14:34:17;;;;;;;6.22;5.63;;;13.40;99.90;;;;;;6170398;23;20023;-90
2022/09/25 14:37:12;;;;;;;8.25;5.60;;;13.30;99.90;;;;;;6188318;23;20044;-89
2022/09/25 14:40:03;;;;;;;7.07;6.37;;;13.20;99.90;;;;;;6164396;23;20017;-89
2022/09/25 14:43:10;;;;;;;6.30;5.70;;;13.10;99.90;;;;;;6183787;23;20031;-88
2022/09/25 14:46:10;;;;;;;6.18;5.22;;;13.00;99.90;;;;;;6227686;23;20009;-87
2022/09/25 14:48:48;;;;;;;8.15;6.35;;;12.90;99.90;;;;;;6170206;23;20016;-90
2022/09/25 14:51:46;;;;;;;9.35;7.15;;;12.90;99.90;;;;;;6217890;23;20024;-90
2022/09/25 14:54:28;;;;;;;11.40;6.78;;;12.80;99.90;;;;;;6194012;23;20435;-89
2022/09/25 14:57:04;;;;;;;7.63;5.47;;;12.70;99.90;;;;;;6194330;23;20016;-89
2022/09/25 14:59:51;;;;;;;8.65;6.38;;;12.70;99.90;;;;;;6193848;23;20024;-86
2022/09/25 15:02:30;;;;;;;8.45;6.88;;;12.70;99.90;;;;;;6193336;23;20047;-85
2022/09/25 15:05:17;;;;;;;6.38;5.68;;;12.80;99.90;;;;;;6218966;23;20020;-87
2022/09/25 15:07:46;;;;;;;7.95;6.75;;;12.80;99.90;;;;;;6193569;23;20020;-86
2022/09/25 15:10:31;;;;;;;8.75;6.68;;;12.90;99.90;;;;;;6218313;23;20012;-84
2022/09/25 15:13:19;;;;;;;8.45;6.82;;;13.00;99.90;;;;;;6254009;23;20483;-85
2022/09/25 15:18:45;;;;;;;6.43;5.60;;;13.10;99.90;;;;;;6217899;23;20020;-85
2022/09/25 15:21:16;;;;;;;;;;;13.10;99.90;;;;;;6216520;23;20024;-86
2022/09/25 15:23:44;;;;;;;8.32;6.07;;;13.20;99.90;;;;;;6240868;22;19942;-86
2022/09/25 15:26:16;;;;;;;5.90;5.28;;;13.20;99.90;;;;;;6212898;23;20016;-87
2022/09/25 15:29:12;;;;;;;5.95;5.38;;;13.30;99.90;;;;;;6224481;23;20019;-88
2022/09/25 15:31:49;;;;;;;6.38;5.78;;;13.40;99.90;;;;;;6189905;23;20016;-91
2022/09/25 15:34:24;;;;;;;7.88;5.45;;;13.50;99.90;;;;;;6188593;23;20352;-90
2022/09/25 15:37:05;;;;;;;5.88;4.97;;;13.40;99.90;;;;;;6215362;23;20387;-90
2022/09/25 15:39:40;;;;;;;9.00;6.40;;;13.40;99.90;;;;;;6189447;23;20020;-91
2022/09/25 15:42:13;;;;;;;8.88;7.50;;;13.20;99.90;;;;;;6212968;23;20031;-90
2022/09/25 15:44:43;;;;;;;6.95;6.28;;;13.20;99.90;;;;;;6189078;23;20023;-87
2022/09/25 15:47:33;;;;;;;12.18;7.90;;;13.10;99.90;;;;;;6213818;23;20451;-90
2022/09/25 15:50:12;;;;;;;8.27;7.43;;;13.00;99.90;;;;;;6189068;23;20016;-89
2022/09/25 15:53:47;;;;;;;8.98;6.72;;;12.90;99.90;;;;;;6189231;23;20042;-84
2022/09/25 16:07:23;;;;;;;11.95;7.90;;;12.70;99.90;;;;;;6154210;23;20043;-88
2022/09/25 16:10:20;;;;;;;10.00;8.68;;;12.70;99.90;;;;;;6161442;23;20611;-90
2022/09/25 16:17:39;;;;;;;13.30;7.85;;;12.50;99.90;;;;;;6229833;23;20024;-89
2022/09/25 16:20:30;;;;;;;16.08;10.73;;;12.60;99.90;;;;;;6225076;23;20012;-90
2022/09/25 16:23:30;;;;;;;;;;;12.60;99.90;;;;;;6152312;23;20039;31
2022/09/25 16:25:58;;;;;;;12.27;9.65;;;12.50;99.90;;;;;;6090144;23;19932;-88
2022/09/25 16:28:54;;;;;;;12.73;9.25;;;12.50;99.90;;;;;;6067887;23;20026;-87
2022/09/25 16:31:28;;;;;;;12.35;8.80;;;12.50;99.90;;;;;;6075265;23;20470;-88
2022/09/25 16:34:25;;;;;;;12.23;9.48;;;12.50;99.90;;;;;;6075718;23;20033;-87
2022/09/25 16:44:31;;;;;;;11.95;9.40;;;12.50;99.90;;;;;;6224799;22;20020;-88
2022/09/25 16:47:17;;;;;;;16.92;12.77;;;12.40;99.90;;;;;;6195094;23;20020;-85
2022/09/25 16:49:47;;;;;;;14.77;11.45;;;12.30;99.90;;;;;;6219516;23;20023;-86
2022/09/25 16:52:21;;;;;;;9.50;8.50;;;12.30;99.90;;;;;;6206089;23;20039;-85
2022/09/25 16:54:55;;;;;;;14.25;9.90;;;12.20;99.90;;;;;;6212395;23;20317;-86
2022/09/25 16:57:28;;;;;;;13.07;10.13;;;12.20;99.90;;;;;;6194221;22;20012;-90
2022/09/25 17:00:17;;;;;;;17.17;10.07;;;12.20;99.90;;;;;;6140014;23;20020;-89
2022/09/25 17:02:49;;;;;;;15.35;9.77;;;12.10;99.90;;;;;;6157231;23;20444;-88
2022/09/25 17:05:18;;;;;;;11.13;8.93;;;12.20;99.90;;;;;;6206202;23;20012;-88
2022/09/25 17:08:00;;;;;;;13.15;10.25;;;12.10;99.90;;;;;;6193950;23;20016;-87
2022/09/25 17:10:30;;;;;;;11.70;9.50;;;12.20;99.90;;;;;;6218921;23;20020;-87
2022/09/25 17:13:03;;;;;;;12.05;10.88;;;12.20;99.90;;;;;;6255230;23;20019;-88
2022/09/25 17:15:33;;;;;;;12.38;9.35;;;12.20;99.90;;;;;;6170072;23;20340;-88
2022/09/25 17:18:12;;;;;;;15.27;12.05;;;12.20;99.90;;;;;;6193552;23;20020;-87
2022/09/25 17:20:39;;;;;;;16.85;10.02;;;12.20;99.90;;;;;;6255224;23;20023;-87
2022/09/25 17:23:09;;;;;;;14.35;10.13;;;12.20;99.90;;;;;;6196986;23;20538;-86
2022/09/25 17:25:47;;;;;;;10.70;9.05;;;12.10;99.90;;;;;;6254037;22;20315;-88
2022/09/25 17:28:18;;;;;;;10.85;7.70;;;12.10;99.90;;;;;;6195847;23;20023;-87
2022/09/25 17:30:49;;;;;;;11.52;8.55;;;12.00;99.90;;;;;;6250126;23;20024;-86
2022/09/25 17:33:22;;;;;;;17.77;10.25;;;12.00;99.90;;;;;;6219864;23;20680;-90
2022/09/25 17:36:04;;;;;;;11.45;9.18;;;12.00;99.90;;;;;;6218895;23;20106;-87
2022/09/25 17:38:32;;;;;;;11.55;9.38;;;12.00;99.90;;;;;;6194074;23;20016;-88
2022/09/25 17:41:05;;;;;;;10.85;8.27;;;11.90;99.90;;;;;;6205695;23;20019;-89
2022/09/25 17:43:33;;;;;;;11.18;8.70;;;11.80;99.90;;;;;;6193835;23;20016;-87
2022/09/25 17:46:04;;;;;;;12.93;9.95;;;11.80;99.90;;;;;;6194454;23;20020;-86
2022/09/25 17:48:32;;;;;;;11.55;9.40;;;11.70;99.90;;;;;;6169533;23;20448;-87
2022/09/25 17:51:17;;;;;;;33.88;13.50;;;11.70;99.90;;;;;;6218894;23;20024;-87
2022/09/25 17:53:48;;;;;;;14.32;10.70;;;11.70;99.90;;;;;;6193744;22;20035;-87
2022/09/25 17:56:15;;;;;;;14.27;9.83;;;11.60;99.90;;;;;;6167604;23;20016;-87
2022/09/25 17:58:43;;;;;;;12.68;10.13;;;11.60;99.90;;;;;;6221139;23;20734;-87
2022/09/25 18:01:20;;;;;;;12.07;9.90;;;11.60;99.90;;;;;;6243040;23;20024;-88
2022/09/25 18:03:50;;;;;;;16.65;10.52;;;11.60;99.90;;;;;;6215352;23;20028;-87
2022/09/25 18:06:21;;;;;;;11.43;8.95;;;11.60;99.90;;;;;;6214464;23;20020;-87
2022/09/25 18:08:50;;;;;;;15.10;10.70;;;11.50;99.90;;;;;;6250036;23;20020;-88
2022/09/25 18:11:17;;;;;;;17.23;12.35;;;11.40;99.90;;;;;;6239482;23;20048;-87
2022/09/25 18:13:45;;;;;;;17.30;10.43;;;11.50;99.90;;;;;;6248811;22;20016;-87
2022/09/25 18:16:16;;;;;;;21.65;11.73;;;11.50;99.90;;;;;;6250208;23;20019;-87
2022/09/25 18:24:20;;;;;;;14.30;10.10;;;11.30;99.90;;;;;;6213963;23;20020;-86
2022/09/25 18:26:52;;;;;;;17.45;11.75;;;11.30;99.90;;;;;;6214110;23;20371;-87
2022/09/25 18:29:20;;;;;;;16.20;11.80;;;11.30;99.90;;;;;;6254314;23;20015;-87
2022/09/25 18:31:48;;;;;;;16.02;11.00;;;11.40;99.90;;;;;;6219066;23;20028;-89
2022/09/25 18:34:17;;;;;;;18.85;10.82;;;11.40;99.90;;;;;;6215055;22;20021;-88
2022/09/25 18:37:27;;;;;;;12.95;11.15;;;11.40;99.90;;;;;;6183852;23;20472;-88
2022/09/25 18:39:54;;;;;;;15.52;9.70;;;11.30;99.90;;;;;;6157633;23;20020;-88
2022/09/25 18:42:22;;;;;;;12.50;8.50;;;11.20;99.90;;;;;;6163200;23;20017;-87
2022/09/25 18:44:49;;;;;;;13.15;10.00;;;11.10;99.90;;;;;;6193351;23;20021;-88
2022/09/25 18:47:17;;;;;;;19.58;9.80;;;11.00;99.90;;;;;;6157661;23;20021;-88
2022/09/25 18:49:45;;;;;;;13.38;10.57;;;11.00;99.90;;;;;;6166085;23;20117;-88
2022/09/25 18:52:12;;;;;;;13.75;10.52;;;11.00;99.90;;;;;;6133563;23;20351;-87
2022/09/25 18:54:40;;;;;;;16.55;11.18;;;11.00;99.90;;;;;;6162428;23;20024;-88
2022/09/25 18:57:10;;;;;;;12.13;9.00;;;11.10;99.90;;;;;;6183742;23;20013;-87
2022/09/25 19:00:13;;;;;;;19.60;13.60;;;11.10;99.90;;;;;;6140617;22;20528;-88
2022/09/25 19:02:44;;;;;;;13.20;10.02;;;11.10;99.90;;;;;;6215421;23;20042;-89
2022/09/25 19:05:15;;;;;;;15.68;11.82;;;11.20;99.90;;;;;;6218400;23;20336;-88
2022/09/25 19:07:43;;;;;;;;;;;11.20;99.90;;;;;;6240749;23;20024;-87
2022/09/25 19:10:17;;;;;;;25.00;12.80;;;11.20;99.90;;;;;;6226386;23;19923;-89
2022/09/25 19:12:45;;;;;;;17.40;12.48;;;11.10;99.90;;;;;;6253828;23;20432;-88
2022/09/25 19:15:13;;;;;;;16.17;11.63;;;11.10;99.90;;;;;;6218454;23;20447;-87
2022/09/25 19:17:41;;;;;;;14.82;12.25;;;11.00;99.90;;;;;;6252503;22;20016;-87
2022/09/25 19:20:09;;;;;;;16.15;12.27;;;11.10;99.90;;;;;;6194035;23;20324;-86
2022/09/25 19:22:36;;;;;;;17.63;12.93;;;11.10;99.90;;;;;;6221510;23;20040;-86
2022/09/25 19:25:05;;;;;;;17.30;12.50;;;11.20;99.90;;;;;;6279826;22;20020;-87
2022/09/25 19:27:32;;;;;;;18.30;11.20;;;11.20;99.90;;;;;;6242796;23;20012;-88
2022/09/25 19:30:02;;;;;;;19.55;10.82;;;11.20;99.90;;;;;;6193206;23;20027;-87
2022/09/25 19:32:29;;;;;;;18.38;13.07;;;11.20;99.90;;;;;;6254544;23;20008;-87
2022/09/25 19:34:58;;;;;;;21.23;11.65;;;11.10;99.90;;;;;;6221866;23;20367;-86
2022/09/25 19:37:28;;;;;;;17.00;11.93;;;11.10;99.90;;;;;;6217490;22;20420;-87
2022/09/25 19:42:50;;;;;;;15.07;11.68;;;11.20;99.90;;;;;;6247665;22;20023;-87
2022/09/25 19:45:21;;;;;;;13.70;10.00;;;11.30;99.90;;;;;;6217941;23;20506;-87
2022/09/25 19:47:48;;;;;;;11.57;9.32;;;11.30;99.90;;;;;;6191922;23;20027;-87
2022/09/25 19:50:17;;;;;;;13.70;10.15;;;11.30;99.90;;;;;;6249463;23;20020;-87
2022/09/25 19:52:45;;;;;;;14.55;10.05;;;11.30;99.90;;;;;;6243269;23;20016;-87
2022/09/25 19:55:18;;;;;;;16.52;8.98;;;11.30;99.90;;;;;;6241911;23;20032;-87
2022/09/25 19:57:46;;;;;;;12.20;9.57;;;11.40;99.90;;;;;;6251821;22;20016;-88
2022/09/25 20:00:17;;;;;;;12.98;10.25;;;11.40;99.90;;;;;;6254471;23;20016;-87
2022/09/25 20:02:45;;;;;;;11.45;9.13;;;11.40;99.90;;;;;;6192867;23;20031;-86
2022/09/25 20:05:13;;;;;;;10.57;9.15;;;11.40;99.90;;;;;;6254155;23;20012;-86
2022/09/25 20:07:41;;;;;;;12.40;9.10;;;11.40;99.90;;;;;;6218367;23;20325;-87
2022/09/25 20:10:08;;;;;;;9.55;8.57;;;11.40;99.90;;;;;;6250335;23;20024;-86
2022/09/25 20:12:36;;;;;;;15.57;8.95;;;11.50;99.90;;;;;;6254930;23;20027;-84
2022/09/25 20:15:04;;;;;;;16.42;9.65;;;11.40;99.90;;;;;;6246398;23;20024;-82
2022/09/25 20:17:31;;;;;;;11.48;9.32;;;11.40;99.90;;;;;;6217066;22;20020;-81
2022/09/25 20:19:59;;;;;;;8.70;7.18;;;11.30;99.90;;;;;;6257597;23;20016;-82
2022/09/25 20:22:26;;;;;;;7.05;6.35;;;11.30;99.90;;;;;;6252160;22;20019;-82
2022/09/25 20:24:54;;;;;;;9.45;7.35;;;11.30;99.90;;;;;;6257644;23;20510;-83
2022/09/25 20:27:21;;;;;;;8.13;7.00;;;11.20;99.90;;;;;;6247960;22;20020;-82
2022/09/25 20:29:50;;;;;;;9.90;6.65;;;11.20;99.90;;;;;;6254737;22;20024;-82
2022/09/25 20:32:17;;;;;;;7.75;6.10;;;11.20;99.90;;;;;;6257405;23;20012;-82
2022/09/25 20:34:45;;;;;;;12.27;7.90;;;11.20;99.90;;;;;;6250895;22;20343;-82
2022/09/25 20:37:13;;;;;;;8.55;6.95;;;11.20;99.90;;;;;;6257038;23;20023;-83
2022/09/25 20:39:40;;;;;;;7.82;7.05;;;11.20;99.90;;;;;;6244989;23;20020;-83
2022/09/25 20:42:08;;;;;;;7.60;5.70;;;11.20;99.90;;;;;;6253093;22;20020;-83
2022/09/25 20:44:35;;;;;;;9.45;6.03;;;11.20;99.90;;;;;;6255718;23;20035;-83
2022/09/25 20:47:03;;;;;;;8.77;7.53;;;11.20;99.90;;;;;;6249586;22;20024;-88
2022/09/25 20:49:30;;;;;;;8.18;7.28;;;11.20;99.90;;;;;;6256095;22;20013;-88
2022/09/25 20:51:59;;;;;;;7.60;6.45;;;11.10;99.90;;;;;;6254252;23;20015;-89
2022/09/25 20:54:29;;;;;;;;;;;11.20;99.90;;;;;;6227454;23;20028;-87
2022/09/25 20:56:56;;;;;;;5.93;5.25;;;11.20;99.90;;;;;;6257279;23;19915;-88
2022/09/25 20:59:24;;;;;;;5.93;4.45;;;11.20;99.90;;;;;;6211456;23;20482;-89
2022/09/25 21:01:51;;;;;;;6.95;5.55;;;11.20;99.90;;;;;;6207930;23;20020;-90
2022/09/25 21:04:27;;;;;;;6.03;5.35;;;11.10;99.90;;;;;;6255542;23;20019;-87
2022/09/25 21:06:55;;;;;;;6.60;5.57;;;11.10;99.90;;;;;;6248593;23;20028;-85
2022/09/25 21:09:25;;;;;;;6.63;5.22;;;11.10;99.90;;;;;;6270305;22;20019;-89
2022/09/25 21:11:53;;;;;;;6.78;5.47;;;11.10;99.90;;;;;;6255810;23;20012;-88
2022/09/25 21:14:26;;;;;;;6.50;5.90;;;11.20;99.90;;;;;;6219370;23;20012;-88
2022/09/25 21:16:57;;;;;;;7.93;5.40;;;11.10;99.90;;;;;;6255854;23;20023;-88
2022/09/25 21:19:26;;;;;;;7.20;5.57;;;11.00;99.90;;;;;;6247903;22;20027;-87
2022/09/25 21:21:56;;;;;;;6.50;5.32;;;11.00;99.90;;;;;;6252778;23;20448;-87
2022/09/25 21:24:27;;;;;;;6.63;5.45;;;11.00;99.90;;;;;;6255305;23;20012;-86
2022/09/25 21:26:56;;;;;;;4.38;3.97;;;11.00;99.90;;;;;;6244406;22;20066;-87
2022/09/25 21:29:23;;;;;;;5.32;4.57;;;11.00;99.90;;;;;;6218821;22;20023;-87
2022/09/25 21:31:51;;;;;;;7.78;4.93;;;11.00;99.90;;;;;;6254886;23;20008;-87
2022/09/25 21:34:18;;;;;;;6.93;6.32;;;11.00;99.90;;;;;;6219279;23;20447;-85
2022/09/25 21:36:49;;;;;;;4.93;4.53;;;10.90;99.90;;;;;;6255080;23;20328;-85
2022/09/25 21:39:17;;;;;;;5.63;5.13;;;10.90;99.90;;;;;;6247911;22;20028;-86
2022/09/25 21:41:48;;;;;;;10.13;4.33;;;10.90;99.90;;;;;;6254203;22;20020;-86
2022/09/25 21:44:18;;;;;;;7.43;3.72;;;10.90;99.90;;;;;;6246644;23;20016;-86